createdAt,value
2023-04-17T00:01:04.187Z,15.47
2023-04-17T00:03:31.901Z,14.37
2023-04-17T00:05:58.567Z,17.17
2023-04-17T00:08:24.844Z,18.17
2023-04-17T00:10:57.005Z,16.67
2023-04-17T00:13:33.094Z,16.07
2023-04-17T00:15:59.376Z,14.90
2023-04-17T00:18:25.869Z,16.13
2023-04-17T00:20:52.376Z,19.27
2023-04-17T00:23:18.640Z,19.30
2023-04-17T00:25:44.927Z,16.20
2023-04-17T00:28:11.271Z,17.00
2023-04-17T00:30:37.524Z,18.83
2023-04-17T00:33:03.795Z,18.50
2023-04-17T00:35:30.097Z,19.23
2023-04-17T00:37:56.337Z,19.70
2023-04-17T00:40:22.626Z,15.73
2023-04-17T00:42:52.945Z,19.77
2023-04-17T00:45:20.287Z,17.63
2023-04-17T00:47:47.421Z,16.40
2023-04-17T00:50:13.722Z,17.73
2023-04-17T00:52:40.080Z,19.90
2023-04-17T00:55:06.757Z,19.17
2023-04-17T00:57:34.004Z,17.67
2023-04-17T01:00:00.343Z,19.07
2023-04-17T01:02:27.043Z,16.07
2023-04-17T01:04:53.526Z,20.13
2023-04-17T01:07:19.919Z,17.97
2023-04-17T01:09:46.268Z,19.97
2023-04-17T01:12:19.866Z,16.67
2023-04-17T01:14:46.305Z,20.50
2023-04-17T01:17:15.691Z,17.30
2023-04-17T01:19:42.221Z,18.07
2023-04-17T01:22:08.626Z,16.13
2023-04-17T01:24:34.880Z,17.17
2023-04-17T01:27:01.479Z,18.73
2023-04-17T01:29:27.778Z,18.33
2023-04-17T01:31:54.129Z,16.37
2023-04-17T01:34:20.530Z,17.97
2023-04-17T01:36:46.804Z,19.80
2023-04-17T01:39:13.382Z,19.17
2023-04-17T01:41:39.807Z,18.83
2023-04-17T01:44:06.274Z,19.17
2023-04-17T01:46:32.540Z,18.40
2023-04-17T01:48:58.824Z,19.27
2023-04-17T01:51:25.128Z,20.27
2023-04-17T01:53:51.416Z,16.83
2023-04-17T01:56:18.016Z,22.30
2023-04-17T01:58:44.334Z,16.87
2023-04-17T02:01:10.707Z,18.33
2023-04-17T02:03:37.322Z,18.30
2023-04-17T02:06:03.765Z,22.93
2023-04-17T02:08:30.081Z,20.47
2023-04-17T02:10:56.454Z,17.20
2023-04-17T02:13:22.718Z,21.33
2023-04-17T02:15:48.994Z,18.53
2023-04-17T02:18:15.512Z,20.17
2023-04-17T02:20:41.897Z,19.10
2023-04-17T02:23:08.212Z,18.13
2023-04-17T02:25:34.652Z,18.37
2023-04-17T02:28:01.197Z,21.20
2023-04-17T02:30:27.685Z,22.53
2023-04-17T02:32:57.216Z,22.47
2023-04-17T02:35:24.468Z,19.67
2023-04-17T02:37:50.777Z,18.83
2023-04-17T02:40:17.194Z,21.93
2023-04-17T02:42:43.559Z,25.00
2023-04-17T02:45:10.463Z,20.37
2023-04-17T02:47:36.941Z,20.60
2023-04-17T02:50:03.588Z,19.43
2023-04-17T02:52:30.960Z,20.73
2023-04-17T02:54:57.235Z,19.70
2023-04-17T02:57:23.799Z,22.93
2023-04-17T02:59:50.367Z,21.20
2023-04-17T03:02:21.770Z,23.90
2023-04-17T03:04:49.226Z,22.57
2023-04-17T03:07:18.529Z,21.93
2023-04-17T03:09:46.952Z,19.47
2023-04-17T03:12:14.347Z,20.17
2023-04-17T03:14:41.146Z,19.90
2023-04-17T03:17:07.721Z,18.57
2023-04-17T03:19:33.995Z,22.93
2023-04-17T03:22:01.678Z,23.57
2023-04-17T03:24:28.168Z,24.03
2023-04-17T03:26:54.499Z,18.33
2023-04-17T03:29:25.805Z,21.73
2023-04-17T03:31:52.283Z,19.33
2023-04-17T03:34:19.356Z,22.20
2023-04-17T03:36:45.679Z,20.97
2023-04-17T03:39:12.165Z,20.87
2023-04-17T03:41:38.775Z,22.03
2023-04-17T03:44:05.387Z,22.70
2023-04-17T03:46:31.706Z,20.57
2023-04-17T03:48:58.010Z,21.37
2023-04-17T03:51:24.431Z,22.37
2023-04-17T03:53:50.692Z,20.83
2023-04-17T03:56:17.210Z,23.23
2023-04-17T03:58:43.520Z,23.07
2023-04-17T04:01:10.956Z,21.37
2023-04-17T04:03:37.630Z,23.40
2023-04-17T04:06:04.053Z,21.10
2023-04-17T04:08:30.399Z,21.60
2023-04-17T04:10:56.781Z,20.80
2023-04-17T04:13:23.065Z,22.57
2023-04-17T04:15:49.398Z,22.50
2023-04-17T04:18:17.263Z,21.90
2023-04-17T04:20:43.875Z,25.50
2023-04-17T04:23:10.169Z,21.47
2023-04-17T04:25:36.684Z,25.30
2023-04-17T04:28:03.115Z,24.37
2023-04-17T04:30:35.876Z,22.27
2023-04-17T04:33:08.330Z,27.23
2023-04-17T04:35:35.506Z,26.20
2023-04-17T04:38:02.163Z,24.93
2023-04-17T04:40:30.602Z,25.57
2023-04-17T04:42:57.079Z,24.17
2023-04-17T04:45:23.380Z,29.33
2023-04-17T04:47:49.692Z,24.27
2023-04-17T04:50:16.433Z,26.07
2023-04-17T04:52:42.752Z,24.73
2023-04-17T04:55:09.158Z,27.50
2023-04-17T04:57:36.327Z,22.57
2023-04-17T05:00:06.235Z,27.73
2023-04-17T05:02:32.685Z,26.33
2023-04-17T05:04:59.083Z,24.77
2023-04-17T05:07:25.955Z,24.53
2023-04-17T05:09:52.217Z,24.60
2023-04-17T05:12:18.445Z,24.23
2023-04-17T05:14:44.891Z,27.40
2023-04-17T05:17:11.119Z,24.93
2023-04-17T05:19:37.352Z,29.53
2023-04-17T05:22:03.608Z,28.77
2023-04-17T05:24:29.964Z,27.90
2023-04-17T05:26:57.064Z,27.87
2023-04-17T05:29:25.133Z,25.83
2023-04-17T05:31:51.636Z,25.67
2023-04-17T05:34:17.918Z,28.53
2023-04-17T05:36:44.178Z,28.33
2023-04-17T05:39:10.702Z,29.20
2023-04-17T05:41:37.159Z,29.30
2023-04-17T05:44:03.403Z,30.53
2023-04-17T05:46:29.802Z,29.03
2023-04-17T05:48:56.186Z,27.83
2023-04-17T05:51:22.716Z,31.13
2023-04-17T05:53:49.036Z,27.90
2023-04-17T05:56:15.453Z,28.37
2023-04-17T05:58:41.709Z,32.90
2023-04-17T06:01:09.130Z,31.10
2023-04-17T06:03:35.775Z,32.17
2023-04-17T06:06:02.517Z,28.43
2023-04-17T06:08:28.936Z,27.63
2023-04-17T06:10:56.256Z,30.47
2023-04-17T06:13:23.524Z,27.20
2023-04-17T06:15:50.154Z,27.20
2023-04-17T06:18:17.521Z,30.27
2023-04-17T06:20:44.593Z,28.83
2023-04-17T06:23:10.861Z,28.37
2023-04-17T06:25:37.396Z,27.63
2023-04-17T06:28:03.872Z,33.80
2023-04-17T06:30:30.129Z,31.17
2023-04-17T06:32:56.436Z,30.83
2023-04-17T06:35:22.785Z,27.63
2023-04-17T06:37:49.033Z,31.63
2023-04-17T06:40:15.492Z,31.67
2023-04-17T06:42:41.856Z,33.80
2023-04-17T06:45:08.298Z,30.40
2023-04-17T06:47:34.582Z,30.80
2023-04-17T06:50:00.898Z,33.50
2023-04-17T06:52:27.225Z,30.43
2023-04-17T06:54:56.511Z,29.73
2023-04-17T06:57:22.813Z,32.20
2023-04-17T06:59:49.104Z,30.33
2023-04-17T07:02:15.498Z,37.63
2023-04-17T07:04:41.955Z,32.97
2023-04-17T07:07:08.343Z,31.57
2023-04-17T07:09:34.593Z,32.97
2023-04-17T07:12:00.843Z,32.00
2023-04-17T07:14:27.393Z,33.80
2023-04-17T07:16:53.676Z,31.37
2023-04-17T07:19:19.931Z,29.00
2023-04-17T07:21:46.344Z,28.17
2023-04-17T07:24:12.596Z,27.30
2023-04-17T07:26:40.359Z,28.73
2023-04-17T07:29:06.697Z,29.03
2023-04-17T07:31:33.280Z,26.47
2023-04-17T07:34:00.611Z,28.57
2023-04-17T07:36:28.626Z,26.33
2023-04-17T07:38:54.855Z,26.43
2023-04-17T07:41:21.106Z,27.17
2023-04-17T07:43:47.399Z,28.00
2023-04-17T07:46:13.795Z,27.87
2023-04-17T07:48:40.400Z,27.30
2023-04-17T07:51:07.634Z,28.47
2023-04-17T07:53:35.981Z,27.87
2023-04-17T07:56:02.224Z,30.23
2023-04-17T07:58:35.696Z,28.67
2023-04-17T08:01:05.690Z,29.73
2023-04-17T08:03:32.363Z,29.53
2023-04-17T08:05:58.878Z,29.27
2023-04-17T08:08:25.644Z,29.70
2023-04-17T08:10:52.251Z,30.87
2023-04-17T08:13:18.794Z,29.40
2023-04-17T08:15:45.831Z,26.07
2023-04-17T08:18:12.199Z,25.60
2023-04-17T08:20:38.734Z,26.47
2023-04-17T08:23:06.021Z,25.90
2023-04-17T08:25:32.323Z,31.30
2023-04-17T08:27:58.688Z,28.77
2023-04-17T08:30:24.985Z,26.93
2023-04-17T08:32:52.634Z,28.27
2023-04-17T08:35:19.014Z,26.00
2023-04-17T08:37:48.268Z,27.13
2023-04-17T08:40:15.305Z,30.03
2023-04-17T08:42:42.341Z,27.03
2023-04-17T08:45:12.333Z,25.10
2023-04-17T08:47:39.352Z,24.00
2023-04-17T08:50:18.606Z,24.90
2023-04-17T08:52:46.130Z,23.23
2023-04-17T08:55:14.001Z,24.83
2023-04-17T08:58:01.070Z,25.17
2023-04-17T09:00:34.438Z,27.10
2023-04-17T09:03:01.939Z,23.57
2023-04-17T09:05:30.442Z,20.20
2023-04-17T09:08:06.430Z,24.23
2023-04-17T09:10:39.573Z,25.53
2023-04-17T09:13:06.241Z,23.03
2023-04-17T09:15:33.636Z,20.90
2023-04-17T09:18:00.159Z,23.50
2023-04-17T09:20:26.585Z,21.27
2023-04-17T09:23:01.126Z,22.37
2023-04-17T09:25:28.351Z,23.10
2023-04-17T09:27:55.898Z,23.63
2023-04-17T09:30:24.488Z,22.47
2023-04-17T09:33:02.991Z,18.57
2023-04-17T09:35:30.542Z,21.43
2023-04-17T09:37:59.978Z,23.93
2023-04-17T09:40:28.727Z,21.47
2023-04-17T09:43:03.500Z,23.17
2023-04-17T09:45:35.561Z,23.83
2023-04-17T09:48:09.075Z,21.13
2023-04-17T09:50:37.326Z,27.57
2023-04-17T09:53:05.218Z,20.80
2023-04-17T09:55:31.612Z,18.90
2023-04-17T09:57:58.674Z,19.50
2023-04-17T10:00:27.651Z,16.00
2023-04-17T10:02:54.834Z,16.63
2023-04-17T10:05:22.019Z,18.50
2023-04-17T10:07:48.651Z,15.47
2023-04-17T10:10:22.070Z,17.13
2023-04-17T10:12:48.888Z,17.47
2023-04-17T10:15:15.893Z,14.50
2023-04-17T10:17:42.448Z,18.77
2023-04-17T10:20:31.669Z,15.60
2023-04-17T10:22:57.964Z,16.80
2023-04-17T10:25:25.691Z,17.20
2023-04-17T10:27:53.539Z,16.70
2023-04-17T10:30:22.554Z,16.40
2023-04-17T10:33:09.681Z,16.87
2023-04-17T10:35:36.915Z,19.00
2023-04-17T10:38:04.443Z,15.43
2023-04-17T10:40:31.303Z,20.97
2023-04-17T10:43:20.486Z,17.60
2023-04-17T10:45:52.813Z,16.87
2023-04-17T10:48:19.664Z,15.63
2023-04-17T10:50:47.248Z,17.40
2023-04-17T10:53:32.261Z,16.13
2023-04-17T10:55:58.538Z,17.27
2023-04-17T10:58:31.515Z,17.30
2023-04-17T11:01:02.298Z,18.90
2023-04-17T11:03:29.652Z,16.30
2023-04-17T11:05:56.046Z,16.20
2023-04-17T11:08:23.573Z,15.53
2023-04-17T11:10:54.179Z,20.30
2023-04-17T11:13:20.545Z,18.27
2023-04-17T11:15:46.896Z,15.13
2023-04-17T11:18:13.320Z,14.33
2023-04-17T11:20:40.835Z,16.50
2023-04-17T11:23:07.128Z,13.70
2023-04-17T11:25:34.578Z,16.13
2023-04-17T11:28:02.181Z,14.15
2023-04-17T11:30:28.548Z,12.97
2023-04-17T11:32:58.492Z,14.93
2023-04-17T11:35:29.200Z,15.63
2023-04-17T11:38:14.475Z,18.83
2023-04-17T11:40:45.255Z,17.23
2023-04-17T11:43:12.148Z,16.43
2023-04-17T11:45:39.717Z,18.17
2023-04-17T11:48:08.253Z,19.53
2023-04-17T11:50:35.184Z,20.77
2023-04-17T11:53:02.728Z,17.27
2023-04-17T11:55:31.399Z,23.00
2023-04-17T11:57:58.438Z,18.40
2023-04-17T12:00:29.171Z,16.17
2023-04-17T12:02:56.606Z,17.13
2023-04-17T12:05:23.985Z,20.40
2023-04-17T12:08:07.239Z,22.20
2023-04-17T12:10:40.138Z,17.13
2023-04-17T12:13:06.534Z,20.43
2023-04-17T12:15:33.157Z,18.00
2023-04-17T12:17:59.622Z,19.03
2023-04-17T12:20:26.849Z,18.57
2023-04-17T12:22:53.266Z,16.97
2023-04-17T12:25:19.543Z,19.63
2023-04-17T12:27:47.460Z,18.27
2023-04-17T12:30:15.334Z,17.73
2023-04-17T12:32:42.792Z,19.30
2023-04-17T12:35:09.332Z,17.57
2023-04-17T12:37:35.606Z,18.97
2023-04-17T12:40:02.040Z,17.13
2023-04-17T12:42:31.459Z,24.07
2023-04-17T12:45:00.219Z,18.17
2023-04-17T12:47:26.608Z,20.73
2023-04-17T12:49:52.914Z,17.50
2023-04-17T12:52:19.256Z,16.50
2023-04-17T12:54:45.565Z,19.23
2023-04-17T12:57:11.880Z,17.07
2023-04-17T12:59:39.605Z,15.33
2023-04-17T13:02:06.069Z,16.40
2023-04-17T13:04:32.930Z,20.77
2023-04-17T13:06:59.294Z,16.53
2023-04-17T13:09:25.604Z,17.40
2023-04-17T13:11:51.909Z,16.57
2023-04-17T13:14:18.196Z,16.97
2023-04-17T13:16:45.648Z,16.00
2023-04-17T13:19:12.289Z,16.77
2023-04-17T13:21:38.794Z,16.60
2023-04-17T13:24:05.452Z,19.17
2023-04-17T13:26:31.749Z,16.30
2023-04-17T13:28:58.052Z,15.47
2023-04-17T13:31:26.657Z,19.63
2023-04-17T13:33:53.047Z,17.93
2023-04-17T13:36:19.282Z,17.90
2023-04-17T13:38:45.579Z,20.13
2023-04-17T13:41:11.905Z,19.37
2023-04-17T13:43:39.018Z,24.47
2023-04-17T13:46:05.323Z,20.30
2023-04-17T13:48:31.667Z,23.97
2023-04-17T13:50:57.919Z,21.57
2023-04-17T13:53:24.234Z,25.27
2023-04-17T13:55:51.161Z,25.10
2023-04-17T13:58:17.397Z,22.57
2023-04-17T14:00:43.638Z,20.17
2023-04-17T14:03:10.043Z,25.93
2023-04-17T14:05:36.503Z,24.63
2023-04-17T14:08:02.809Z,23.20
2023-04-17T14:10:29.053Z,25.33
2023-04-17T14:12:55.328Z,27.90
2023-04-17T14:15:21.583Z,26.40
2023-04-17T14:17:47.937Z,25.47
2023-04-17T14:20:16.766Z,25.50
2023-04-17T14:22:43.057Z,24.40
2023-04-17T14:25:09.483Z,27.67
2023-04-17T14:27:36.380Z,24.27
2023-04-17T14:30:02.784Z,25.97
2023-04-17T14:32:29.300Z,27.33
2023-04-17T14:34:55.617Z,27.93
2023-04-17T14:37:21.946Z,25.10
2023-04-17T14:39:48.269Z,22.30
2023-04-17T14:42:14.612Z,23.40
2023-04-17T14:44:43.248Z,22.47
2023-04-17T14:47:10.002Z,20.97
2023-04-17T14:49:36.604Z,23.73
2023-04-17T14:52:02.891Z,23.13
2023-04-17T14:54:29.219Z,20.73
2023-04-17T14:56:56.240Z,22.70
2023-04-17T14:59:22.514Z,20.93
2023-04-17T15:01:49.008Z,21.53
2023-04-17T15:04:15.554Z,22.37
2023-04-17T15:06:42.905Z,27.03
2023-04-17T15:09:09.431Z,23.83
2023-04-17T15:11:36.253Z,23.27
2023-04-17T15:14:02.619Z,23.17
2023-04-17T15:16:30.007Z,24.43
2023-04-17T15:18:56.266Z,22.70
2023-04-17T15:21:22.512Z,19.50
2023-04-17T15:23:48.827Z,23.77
2023-04-17T15:26:15.144Z,21.30
2023-04-17T15:28:41.457Z,22.10
2023-04-17T15:31:08.021Z,18.90
2023-04-17T15:33:34.283Z,19.23
2023-04-17T15:36:00.840Z,18.53
2023-04-17T15:38:27.431Z,18.80
2023-04-17T15:40:53.802Z,17.47
2023-04-17T15:43:20.132Z,16.90
2023-04-17T15:45:49.607Z,20.17
2023-04-17T15:48:15.950Z,18.47
2023-04-17T15:50:42.428Z,19.23
2023-04-17T15:53:09.036Z,20.07
2023-04-17T15:55:36.786Z,18.63
2023-04-17T15:58:03.258Z,19.40
2023-04-17T16:00:29.782Z,17.80
2023-04-17T16:02:56.263Z,17.70
2023-04-17T16:05:22.555Z,17.13
2023-04-17T16:07:48.793Z,17.77
2023-04-17T16:10:15.505Z,17.83
2023-04-17T16:12:43.170Z,23.87
2023-04-17T16:15:13.463Z,18.07
2023-04-17T16:17:40.271Z,19.90
2023-04-17T16:20:06.866Z,18.13
2023-04-17T16:22:33.134Z,18.87
2023-04-17T16:24:59.455Z,16.43
2023-04-17T16:27:26.033Z,16.60
2023-04-17T16:29:52.470Z,18.17
2023-04-17T16:32:19.816Z,13.07
2023-04-17T16:34:47.015Z,15.00
2023-04-17T16:37:14.813Z,15.80
2023-04-17T16:39:41.127Z,15.33
2023-04-17T16:42:07.436Z,15.17
2023-04-17T16:44:33.708Z,14.60
2023-04-17T16:47:12.602Z,14.90
2023-04-17T16:49:40.869Z,17.07
2023-04-17T16:52:07.138Z,15.60
2023-04-17T16:54:33.404Z,13.33
2023-04-17T16:56:59.692Z,14.80
2023-04-17T16:59:26.061Z,14.67
2023-04-17T17:01:52.684Z,15.40
2023-04-17T17:04:19.091Z,16.83
2023-04-17T17:06:45.402Z,17.27
2023-04-17T17:09:11.886Z,16.00
2023-04-17T17:11:38.219Z,15.70
2023-04-17T17:14:04.465Z,15.20
2023-04-17T17:16:30.829Z,16.83
2023-04-17T17:18:57.200Z,17.40
2023-04-17T17:21:23.464Z,18.50
2023-04-17T17:23:49.703Z,19.30
2023-04-17T17:26:17.200Z,19.17
2023-04-17T17:28:44.180Z,19.30
2023-04-17T17:31:10.464Z,18.03
2023-04-17T17:33:37.275Z,18.03
2023-04-17T17:36:03.741Z,16.90
2023-04-17T17:38:32.352Z,15.67
2023-04-17T17:40:58.792Z,17.73
2023-04-17T17:43:25.077Z,17.53
2023-04-17T17:45:52.151Z,18.17
2023-04-17T17:48:20.352Z,19.23
2023-04-17T17:50:47.034Z,16.90
2023-04-17T17:53:13.363Z,17.97
2023-04-17T17:55:39.924Z,16.83
2023-04-17T17:58:07.354Z,17.77
2023-04-17T18:00:33.758Z,18.60
2023-04-17T18:03:00.348Z,17.80
2023-04-17T18:05:27.109Z,18.60
2023-04-17T18:07:53.470Z,20.83
2023-04-17T18:10:19.714Z,16.33
2023-04-17T18:12:46.194Z,16.67
2023-04-17T18:15:12.486Z,15.97
2023-04-17T18:17:38.785Z,16.93
2023-04-17T18:20:05.272Z,17.80
2023-04-17T18:22:31.585Z,18.63
2023-04-17T18:24:57.812Z,16.63
2023-04-17T18:27:24.051Z,17.47
2023-04-17T18:29:50.416Z,18.87
2023-04-17T18:32:16.755Z,15.67
2023-04-17T18:34:44.098Z,16.90
2023-04-17T18:37:10.446Z,18.77
2023-04-17T18:39:36.713Z,18.37
2023-04-17T18:42:03.067Z,16.93
2023-04-17T18:44:29.353Z,19.47
2023-04-17T18:46:55.632Z,18.27
2023-04-17T18:49:21.908Z,19.03
2023-04-17T18:51:48.191Z,20.77
2023-04-17T18:54:15.812Z,18.50
2023-04-17T18:56:42.322Z,19.30
2023-04-17T18:59:08.892Z,17.90
2023-04-17T19:01:35.314Z,18.93
2023-04-17T19:04:02.603Z,21.33
2023-04-17T19:06:29.068Z,22.33
2023-04-17T19:08:56.862Z,23.03
2023-04-17T19:11:23.661Z,19.00
2023-04-17T19:13:50.017Z,21.47
2023-04-17T19:16:16.431Z,22.43
2023-04-17T19:18:42.717Z,22.03
2023-04-17T19:21:09.027Z,22.60
2023-04-17T19:23:36.209Z,21.47
2023-04-17T19:26:02.506Z,21.23
2023-04-17T19:28:28.904Z,21.33
2023-04-17T19:30:56.072Z,23.83
2023-04-17T19:33:22.999Z,20.67
2023-04-17T19:35:49.962Z,19.40
2023-04-17T19:38:17.354Z,23.97
2023-04-17T19:40:46.761Z,20.40
2023-04-17T19:43:13.038Z,20.77
2023-04-17T19:45:39.461Z,21.57
2023-04-17T19:48:06.025Z,19.17
2023-04-17T19:50:32.488Z,19.73
2023-04-17T19:52:58.912Z,19.43
2023-04-17T19:55:25.183Z,19.57
2023-04-17T19:57:52.244Z,21.90
2023-04-17T20:00:18.662Z,22.77
2023-04-17T20:02:45.067Z,23.10
2023-04-17T20:05:11.504Z,22.53
2023-04-17T20:07:37.801Z,21.87
2023-04-17T20:10:04.788Z,20.87
2023-04-17T20:12:31.040Z,24.07
2023-04-17T20:14:57.331Z,21.43
2023-04-17T20:17:23.704Z,23.10
2023-04-17T20:19:49.971Z,21.90
2023-04-17T20:22:16.319Z,21.93
2023-04-17T20:24:42.598Z,23.07
2023-04-17T20:27:08.864Z,20.70
2023-04-17T20:29:35.271Z,25.70
2023-04-17T20:32:03.657Z,23.00
2023-04-17T20:34:34.859Z,20.53
2023-04-17T20:37:01.919Z,21.40
2023-04-17T20:39:28.940Z,20.90
2023-04-17T20:41:55.305Z,20.70
2023-04-17T20:44:22.130Z,21.90
2023-04-17T20:46:48.459Z,22.77
2023-04-17T20:49:14.832Z,22.43
2023-04-17T20:51:41.229Z,22.37
2023-04-17T20:54:07.484Z,18.63
2023-04-17T20:56:33.735Z,20.83
2023-04-17T20:59:00.026Z,18.73
2023-04-17T21:01:26.998Z,23.43
2023-04-17T21:03:53.461Z,20.60
2023-04-17T21:06:22.221Z,21.30
2023-04-17T21:08:48.549Z,21.53
2023-04-17T21:11:15.042Z,20.20
2023-04-17T21:13:41.390Z,19.57
2023-04-17T21:16:10.061Z,21.67
2023-04-17T21:18:36.306Z,21.23
2023-04-17T21:21:02.798Z,22.30
2023-04-17T21:23:29.083Z,23.73
2023-04-17T21:25:55.619Z,21.87
2023-04-17T21:28:22.009Z,20.33
2023-04-17T21:30:48.279Z,18.90
2023-04-17T21:33:14.674Z,19.20
2023-04-17T21:35:40.922Z,23.40
2023-04-17T21:38:07.241Z,20.37
2023-04-17T21:40:33.845Z,19.67
2023-04-17T21:43:01.048Z,21.40
2023-04-17T21:45:27.316Z,20.97
2023-04-17T21:47:53.636Z,20.30
2023-04-17T21:50:19.998Z,19.97
2023-04-17T21:52:46.241Z,20.57
2023-04-17T21:55:12.561Z,22.27
2023-04-17T21:57:38.958Z,20.50
2023-04-17T22:00:05.696Z,19.93
2023-04-17T22:02:32.051Z,22.43
2023-04-17T22:04:58.408Z,21.80
2023-04-17T22:07:24.736Z,20.53
2023-04-17T22:09:51.027Z,20.77
2023-04-17T22:12:23.452Z,20.60
2023-04-17T22:14:49.740Z,20.20
2023-04-17T22:17:16.015Z,19.73
2023-04-17T22:19:42.362Z,24.10
2023-04-17T22:22:08.636Z,20.47
2023-04-17T22:24:35.851Z,21.83
2023-04-17T22:27:02.140Z,20.37
2023-04-17T22:29:28.395Z,21.50
2023-04-17T22:31:54.665Z,20.60
2023-04-17T22:34:20.921Z,20.30
2023-04-17T22:36:47.289Z,17.30
2023-04-17T22:39:13.537Z,20.40
2023-04-17T22:41:39.898Z,21.30
2023-04-17T22:44:07.023Z,21.20
2023-04-17T22:46:33.363Z,23.13
2023-04-17T22:49:00.783Z,21.60
2023-04-17T22:51:29.495Z,19.93
2023-04-17T22:53:55.883Z,20.40
2023-04-17T22:56:22.858Z,19.13
2023-04-17T22:58:54.392Z,20.37
2023-04-17T23:01:21.010Z,20.27
2023-04-17T23:03:47.326Z,19.53
2023-04-17T23:06:13.618Z,20.97
2023-04-17T23:08:39.931Z,20.33
2023-04-17T23:11:06.202Z,20.13
2023-04-17T23:13:32.509Z,17.67
2023-04-17T23:15:58.864Z,18.37
2023-04-17T23:18:25.153Z,19.73
2023-04-17T23:20:51.431Z,21.20
2023-04-17T23:23:20.626Z,19.40
2023-04-17T23:25:47.028Z,20.73
2023-04-17T23:28:13.945Z,18.33
2023-04-17T23:30:40.510Z,21.20
2023-04-17T23:33:06.923Z,18.80
2023-04-17T23:35:33.269Z,18.77
2023-04-17T23:37:59.526Z,19.83
2023-04-17T23:40:27.411Z,19.77
2023-04-17T23:42:54.297Z,22.33
2023-04-17T23:45:20.718Z,18.77
2023-04-17T23:47:47.013Z,20.63
2023-04-17T23:50:13.619Z,20.23
2023-04-17T23:52:41.002Z,20.50
2023-04-17T23:55:08.007Z,19.40
2023-04-17T23:57:35.490Z,21.67
